< < Back
Terminal Aerodrome Forecast


Current Version              Previous Versions:   1  2  3  4  5  6  7  8  9  

Terminal Aerodrome Forecast

968
FTUS42 KMLB 031733
TAFMCO
TAF
KMCO 031733Z 0318/0418 27008KT P6SM SCT035 SCT250
     FM031900 29008KT P6SM VCTS SCT030CB BKN050 BKN250
     FM040000 28005KT P6SM VCSH SCT030 SCT050 BKN250
     FM040300 27003KT P6SM SCT050 SCT250=



Latest METAR

039
SAUS70 KWBC 032300 RRD
MTRMCO
METAR KMCO 032253Z 29006KT 10SM FEW045 BKN280 32/21 A2990 RMK AO2 SLP125
CB DSNT SW-NW MOV SE T03170211


USA.gov is the U.S. government's official web portal to all federal, state and local government web resources and services.